createdAt,value
2018-05-06T00:02:00.421Z,4.07
2018-05-06T00:04:28.866Z,3.40
2018-05-06T00:07:01.355Z,3.13
2018-05-06T00:09:29.800Z,3.10
2018-05-06T00:11:59.965Z,2.60
2018-05-06T00:14:29.079Z,3.57
2018-05-06T00:16:58.611Z,4.77
2018-05-06T00:19:26.961Z,2.70
2018-05-06T00:21:56.216Z,4.00
2018-05-06T00:24:24.651Z,3.13
2018-05-06T00:26:53.104Z,2.90
2018-05-06T00:29:21.453Z,3.00
2018-05-06T00:31:50.221Z,3.50
2018-05-06T00:34:18.591Z,2.50
2018-05-06T00:36:47.026Z,3.17
2018-05-06T00:39:16.792Z,2.70
2018-05-06T00:41:45.273Z,3.10
2018-05-06T00:44:14.414Z,2.83
2018-05-06T00:46:42.978Z,2.97
2018-05-06T00:49:12.408Z,2.60
2018-05-06T00:51:41.448Z,3.33
2018-05-06T00:54:27.903Z,3.57
2018-05-06T00:56:56.249Z,3.10
2018-05-06T00:59:25.824Z,3.43
2018-05-06T01:01:54.218Z,4.07
2018-05-06T01:04:22.589Z,2.90
2018-05-06T01:06:53.131Z,2.60
2018-05-06T01:09:22.791Z,2.73
2018-05-06T01:11:51.125Z,2.80
2018-05-06T01:14:20.736Z,3.30
2018-05-06T01:16:49.140Z,3.17
2018-05-06T01:19:19.039Z,3.30
2018-05-06T01:21:47.441Z,3.80
2018-05-06T01:24:15.891Z,3.37
2018-05-06T01:26:44.410Z,3.67
2018-05-06T01:29:13.598Z,3.13
2018-05-06T01:31:41.965Z,3.47
2018-05-06T01:34:10.339Z,4.33
2018-05-06T01:36:38.731Z,3.30
2018-05-06T01:39:07.110Z,3.80
2018-05-06T01:41:35.467Z,3.63
2018-05-06T01:44:03.857Z,5.47
2018-05-06T01:46:32.176Z,3.47
2018-05-06T01:49:01.332Z,3.73
2018-05-06T01:51:29.660Z,3.30
2018-05-06T01:53:58.783Z,3.40
2018-05-06T01:56:27.115Z,4.93
2018-05-06T01:58:56.079Z,3.20
2018-05-06T02:01:24.442Z,4.50
2018-05-06T02:03:52.827Z,3.97
2018-05-06T02:06:21.234Z,3.60
2018-05-06T02:08:50.030Z,3.20
2018-05-06T02:11:18.430Z,4.03
2018-05-06T02:13:47.522Z,3.60
2018-05-06T02:16:16.655Z,4.00
2018-05-06T02:18:45.013Z,3.83
2018-05-06T02:21:13.390Z,4.43
2018-05-06T02:23:41.754Z,4.37
2018-05-06T02:26:10.965Z,5.00
2018-05-06T02:28:40.370Z,3.90
2018-05-06T02:31:08.741Z,4.73
2018-05-06T02:33:37.136Z,6.07
2018-05-06T02:36:05.507Z,3.40
2018-05-06T02:38:33.847Z,4.37
2018-05-06T02:41:02.287Z,4.20
2018-05-06T02:43:30.649Z,3.80
2018-05-06T02:45:59.070Z,3.67
2018-05-06T02:48:27.435Z,4.77
2018-05-06T02:50:55.817Z,3.60
2018-05-06T02:53:24.190Z,4.80
2018-05-06T02:55:52.525Z,4.47
2018-05-06T02:58:20.909Z,3.70
2018-05-06T03:00:50.311Z,4.43
2018-05-06T03:03:19.431Z,3.33
2018-05-06T03:05:47.772Z,3.47
2018-05-06T03:08:16.938Z,4.37
2018-05-06T03:10:45.353Z,4.50
2018-05-06T03:13:14.467Z,4.00
2018-05-06T03:15:42.797Z,3.50
2018-05-06T03:18:11.207Z,4.27
2018-05-06T03:20:40.309Z,3.87
2018-05-06T03:23:09.214Z,3.60
2018-05-06T03:25:37.559Z,4.63
2018-05-06T03:28:06.810Z,4.03
2018-05-06T03:30:35.182Z,4.53
2018-05-06T03:33:03.565Z,5.30
2018-05-06T03:35:31.960Z,4.40
2018-05-06T03:38:00.415Z,3.90
2018-05-06T03:40:29.164Z,3.60
2018-05-06T03:42:57.532Z,3.90
2018-05-06T03:45:25.979Z,3.93
2018-05-06T03:47:54.340Z,3.57
2018-05-06T03:50:22.690Z,3.53
2018-05-06T03:52:52.617Z,3.87
2018-05-06T03:55:21.838Z,4.50
2018-05-06T03:58:07.865Z,4.97
2018-05-06T04:00:41.970Z,4.37
2018-05-06T04:03:10.371Z,4.00
2018-05-06T04:05:38.724Z,3.57
2018-05-06T04:08:07.064Z,3.73
2018-05-06T04:10:36.261Z,5.10
2018-05-06T04:13:04.606Z,3.63
2018-05-06T04:15:32.976Z,4.30
2018-05-06T04:18:01.327Z,3.80
2018-05-06T04:20:29.663Z,4.30
2018-05-06T04:22:58.806Z,3.70
2018-05-06T04:25:27.269Z,4.67
2018-05-06T04:27:55.672Z,4.00
2018-05-06T04:30:24.076Z,5.37
2018-05-06T04:32:52.653Z,4.83
2018-05-06T04:35:21.091Z,5.33
2018-05-06T04:37:49.457Z,3.83
2018-05-06T04:40:17.873Z,3.87
2018-05-06T04:42:46.232Z,6.10
2018-05-06T04:45:14.603Z,4.00
2018-05-06T04:47:42.988Z,4.40
2018-05-06T04:50:11.403Z,4.57
2018-05-06T04:52:39.783Z,4.37
2018-05-06T04:55:08.182Z,4.60
2018-05-06T04:57:37.292Z,4.83
2018-05-06T05:00:05.670Z,4.50
2018-05-06T05:02:34.796Z,4.17
2018-05-06T05:05:03.135Z,4.07
2018-05-06T05:07:32.288Z,5.27
2018-05-06T05:10:00.625Z,4.63
2018-05-06T05:12:28.972Z,4.80
2018-05-06T05:14:57.321Z,4.90
2018-05-06T05:17:25.702Z,4.73
2018-05-06T05:19:54.080Z,7.33
2018-05-06T05:22:22.452Z,4.77
2018-05-06T05:24:51.227Z,5.27
2018-05-06T05:27:19.632Z,4.83
2018-05-06T05:29:48.032Z,5.77
2018-05-06T05:32:16.405Z,4.53
2018-05-06T05:34:44.785Z,5.03
2018-05-06T05:37:13.140Z,6.10
2018-05-06T05:39:41.480Z,8.20
2018-05-06T05:42:11.110Z,6.80
2018-05-06T05:44:39.665Z,5.73
2018-05-06T05:47:08.765Z,5.47
2018-05-06T05:49:37.133Z,7.63
2018-05-06T05:52:07.178Z,5.10
2018-05-06T05:54:35.533Z,5.97
2018-05-06T05:57:03.979Z,5.30
2018-05-06T05:59:32.357Z,6.20
2018-05-06T06:02:00.729Z,5.87
2018-05-06T06:04:29.114Z,5.53
2018-05-06T06:06:57.457Z,6.17
2018-05-06T06:09:25.841Z,6.30
2018-05-06T06:11:54.182Z,6.70
2018-05-06T06:14:23.341Z,8.87
2018-05-06T06:16:52.733Z,7.33
2018-05-06T06:19:21.141Z,6.80
2018-05-06T06:21:49.500Z,4.97
2018-05-06T06:24:17.845Z,5.83
2018-05-06T06:26:46.245Z,5.83
2018-05-06T06:29:14.599Z,5.27
2018-05-06T06:31:43.039Z,9.63
2018-05-06T06:34:12.486Z,5.73
2018-05-06T06:36:41.024Z,6.93
2018-05-06T06:39:09.399Z,5.93
2018-05-06T06:41:38.540Z,6.17
2018-05-06T06:44:06.861Z,5.60
2018-05-06T06:46:35.250Z,6.30
2018-05-06T06:49:03.624Z,6.87
2018-05-06T06:51:32.025Z,5.43
2018-05-06T06:54:00.403Z,6.10
2018-05-06T06:56:29.530Z,6.60
2018-05-06T06:58:57.930Z,6.20
2018-05-06T07:01:26.287Z,5.90
2018-05-06T07:03:54.637Z,5.63
2018-05-06T07:06:23.814Z,6.30
2018-05-06T07:08:53.734Z,5.47
2018-05-06T07:11:22.974Z,5.43
2018-05-06T07:13:52.104Z,6.73
2018-05-06T07:16:20.476Z,7.53
2018-05-06T07:18:48.845Z,4.87
2018-05-06T07:21:17.178Z,8.17
2018-05-06T07:23:46.291Z,5.43
2018-05-06T07:26:15.961Z,5.00
2018-05-06T07:28:44.312Z,5.13
2018-05-06T07:31:12.660Z,5.33
2018-05-06T07:33:41.024Z,4.43
2018-05-06T07:36:10.172Z,5.83
2018-05-06T07:38:38.529Z,6.67
2018-05-06T07:41:06.924Z,4.57
2018-05-06T07:43:35.301Z,6.60
2018-05-06T07:46:04.488Z,4.60
2018-05-06T07:48:32.846Z,4.17
2018-05-06T07:51:01.992Z,4.03
2018-05-06T07:53:30.344Z,3.40
2018-05-06T07:55:58.743Z,4.33
2018-05-06T07:58:27.061Z,3.43
2018-05-06T08:00:56.243Z,6.43
2018-05-06T08:03:26.424Z,5.10
2018-05-06T08:05:54.797Z,3.47
2018-05-06T08:08:23.334Z,3.90
2018-05-06T08:10:52.819Z,3.77
2018-05-06T08:13:21.152Z,5.50
2018-05-06T08:15:49.603Z,3.40
2018-05-06T08:18:17.976Z,3.03
2018-05-06T08:20:46.362Z,3.90
2018-05-06T08:23:15.541Z,4.13
2018-05-06T08:25:43.972Z,3.50
2018-05-06T08:28:12.495Z,6.63
2018-05-06T08:30:40.868Z,4.03
2018-05-06T08:33:09.224Z,2.97
2018-05-06T08:35:37.609Z,3.33
2018-05-06T08:38:05.967Z,3.50
2018-05-06T08:40:34.326Z,3.87
2018-05-06T08:43:02.698Z,3.90
2018-05-06T08:45:31.814Z,2.80
2018-05-06T08:48:00.232Z,2.83
2018-05-06T08:50:28.669Z,2.70
2018-05-06T08:52:57.076Z,3.00
2018-05-06T08:55:25.616Z,3.10
2018-05-06T08:57:54.086Z,4.45
2018-05-06T09:00:22.685Z,3.03
2018-05-06T09:02:51.052Z,3.77
2018-05-06T09:05:20.202Z,3.70
2018-05-06T09:07:48.587Z,3.80
2018-05-06T09:10:16.995Z,2.50
2018-05-06T09:12:46.272Z,2.60
2018-05-06T09:15:14.652Z,4.23
2018-05-06T09:17:42.987Z,3.43
2018-05-06T09:20:12.140Z,2.40
2018-05-06T09:22:40.496Z,2.63
2018-05-06T09:25:08.935Z,3.40
2018-05-06T09:27:37.311Z,5.73
2018-05-06T09:30:06.418Z,3.27
2018-05-06T09:32:35.625Z,3.63
2018-05-06T09:35:03.990Z,3.20
2018-05-06T09:37:32.491Z,3.10
2018-05-06T09:40:00.831Z,2.80
2018-05-06T09:42:30.033Z,2.73
2018-05-06T09:44:58.406Z,3.80
2018-05-06T09:47:27.541Z,2.70
2018-05-06T09:49:55.930Z,3.37
2018-05-06T09:52:24.296Z,3.13
2018-05-06T09:54:52.629Z,3.35
2018-05-06T09:57:21.070Z,2.93
2018-05-06T09:59:49.443Z,4.47
2018-05-06T10:02:17.823Z,3.77
2018-05-06T10:04:46.279Z,2.90
2018-05-06T10:07:14.633Z,2.33
2018-05-06T10:09:43.765Z,2.93
2018-05-06T10:12:12.142Z,3.03
2018-05-06T10:14:40.560Z,4.23
2018-05-06T10:17:09.051Z,2.97
2018-05-06T10:19:37.436Z,3.62
2018-05-06T10:22:06.578Z,4.30
2018-05-06T10:24:35.006Z,3.20
2018-05-06T10:27:03.387Z,3.20
2018-05-06T10:29:31.716Z,3.47
2018-05-06T10:32:00.073Z,2.50
2018-05-06T10:34:28.426Z,3.30
2018-05-06T10:36:57.859Z,3.17
2018-05-06T10:39:26.297Z,4.10
2018-05-06T10:41:54.691Z,3.17
2018-05-06T10:44:23.849Z,2.43
2018-05-06T10:46:52.200Z,3.70
2018-05-06T10:49:20.605Z,3.70
2018-05-06T10:51:49.074Z,3.47
2018-05-06T10:54:18.545Z,3.14
2018-05-06T10:56:47.732Z,3.80
2018-05-06T10:59:16.859Z,2.85
2018-05-06T11:01:45.225Z,2.78
2018-05-06T11:04:14.355Z,2.95
2018-05-06T11:06:42.721Z,3.20
2018-05-06T11:09:11.076Z,3.15
2018-05-06T11:11:40.186Z,2.67
2018-05-06T11:14:08.554Z,3.35
2018-05-06T11:16:37.769Z,3.00
2018-05-06T11:19:06.130Z,3.10
2018-05-06T11:21:35.574Z,2.30
2018-05-06T11:24:03.996Z,2.33
2018-05-06T11:26:33.196Z,3.10
2018-05-06T11:29:02.326Z,2.70
2018-05-06T11:31:30.730Z,2.55
2018-05-06T11:33:59.141Z,2.20
2018-05-06T11:36:27.542Z,3.17
2018-05-06T11:38:56.857Z,4.12
2018-05-06T11:41:25.280Z,2.30
2018-05-06T11:43:53.617Z,2.87
2018-05-06T11:46:21.964Z,2.60
2018-05-06T11:48:51.085Z,2.30
2018-05-06T11:51:20.047Z,4.24
2018-05-06T11:53:49.190Z,2.08
2018-05-06T11:56:17.971Z,2.40
2018-05-06T11:58:46.264Z,2.10
2018-05-06T12:01:14.651Z,2.30
2018-05-06T12:03:43.008Z,2.65
2018-05-06T12:06:11.563Z,2.20
2018-05-06T12:08:40.019Z,2.58
2018-05-06T12:11:08.365Z,2.42
2018-05-06T12:13:37.749Z,2.53
2018-05-06T12:16:06.184Z,3.35
2018-05-06T12:18:35.239Z,2.07
2018-05-06T12:21:03.592Z,3.05
2018-05-06T12:23:31.970Z,2.22
2018-05-06T12:26:00.304Z,2.97
2018-05-06T12:28:28.653Z,2.45
2018-05-06T12:30:57.163Z,2.35
2018-05-06T12:33:25.550Z,2.35
2018-05-06T12:35:53.881Z,2.25
2018-05-06T12:38:22.232Z,3.15
2018-05-06T12:40:52.196Z,2.60
2018-05-06T12:43:21.075Z,2.30
2018-05-06T12:45:50.358Z,2.55
2018-05-06T12:48:19.610Z,3.22
2018-05-06T12:50:47.961Z,2.67
2018-05-06T12:53:16.415Z,2.03
2018-05-06T12:55:45.665Z,2.22
2018-05-06T12:58:14.005Z,1.87
2018-05-06T13:00:42.335Z,3.75
2018-05-06T13:03:11.572Z,2.95
2018-05-06T13:05:39.980Z,2.83
2018-05-06T13:08:08.325Z,3.50
2018-05-06T13:10:36.672Z,2.85
2018-05-06T13:13:05.754Z,2.35
2018-05-06T13:15:34.233Z,1.83
2018-05-06T13:18:02.584Z,3.15
2018-05-06T13:20:30.932Z,2.37
2018-05-06T13:22:59.297Z,2.22
2018-05-06T13:25:28.435Z,3.00
2018-05-06T13:27:56.834Z,2.42
2018-05-06T13:30:25.212Z,2.85
2018-05-06T13:32:54.079Z,2.33
2018-05-06T13:35:23.446Z,2.22
2018-05-06T13:37:53.745Z,2.10
2018-05-06T13:40:22.109Z,2.80
2018-05-06T13:42:50.511Z,2.15
2018-05-06T13:45:19.636Z,2.90
2018-05-06T13:47:48.643Z,2.33
2018-05-06T13:50:17.216Z,1.73
2018-05-06T13:52:45.592Z,2.12
2018-05-06T13:55:13.948Z,2.42
2018-05-06T13:57:43.932Z,2.20
2018-05-06T14:00:12.955Z,2.85
2018-05-06T14:02:42.977Z,2.00
2018-05-06T14:05:13.294Z,2.92
2018-05-06T14:07:43.176Z,2.20
2018-05-06T14:10:12.297Z,2.05
2018-05-06T14:12:41.539Z,1.87
2018-05-06T14:15:10.001Z,2.47
2018-05-06T14:17:40.042Z,2.42
2018-05-06T14:20:09.206Z,2.20
2018-05-06T14:22:39.257Z,1.80
2018-05-06T14:25:08.651Z,2.25
2018-05-06T14:27:37.449Z,2.17
2018-05-06T14:30:05.882Z,1.98
2018-05-06T14:32:34.890Z,2.12
2018-05-06T14:35:04.850Z,2.17
2018-05-06T14:37:33.176Z,2.00
2018-05-06T14:40:02.281Z,3.08
2018-05-06T14:42:31.394Z,4.27
2018-05-06T14:45:01.530Z,2.00
2018-05-06T14:47:47.732Z,4.28
2018-05-06T14:50:16.869Z,3.00
2018-05-06T14:52:45.244Z,2.15
2018-05-06T14:55:13.597Z,2.10
2018-05-06T14:57:42.752Z,2.50
2018-05-06T15:00:13.582Z,2.00
2018-05-06T15:02:41.997Z,1.87
2018-05-06T15:05:10.370Z,1.70
2018-05-06T15:07:39.119Z,2.22
2018-05-06T15:10:08.257Z,2.33
2018-05-06T15:12:38.110Z,1.70
2018-05-06T15:15:06.559Z,1.98
2018-05-06T15:17:34.900Z,2.42
2018-05-06T15:20:03.346Z,2.00
2018-05-06T15:22:31.721Z,1.58
2018-05-06T15:25:00.100Z,1.90
2018-05-06T15:27:29.172Z,1.50
2018-05-06T15:29:58.252Z,1.50
2018-05-06T15:32:27.479Z,1.48
2018-05-06T15:34:59.121Z,1.85
2018-05-06T15:37:28.276Z,2.30
2018-05-06T15:39:59.738Z,1.75
2018-05-06T15:42:28.094Z,1.92
2018-05-06T15:44:58.295Z,2.03
2018-05-06T15:47:28.304Z,2.12
2018-05-06T15:49:56.742Z,2.05
2018-05-06T15:52:25.174Z,2.85
2018-05-06T15:54:53.624Z,3.22
2018-05-06T15:57:22.524Z,2.12
2018-05-06T15:59:50.917Z,2.10
2018-05-06T16:02:57.234Z,2.17
2018-05-06T16:05:25.631Z,3.08
2018-05-06T16:07:54.800Z,1.83
2018-05-06T16:10:23.925Z,1.60
2018-05-06T16:12:52.301Z,2.25
2018-05-06T16:15:22.221Z,2.35
2018-05-06T16:17:51.358Z,2.53
2018-05-06T16:20:20.630Z,2.00
2018-05-06T16:22:49.058Z,1.80
2018-05-06T16:25:17.916Z,2.33
2018-05-06T16:27:46.312Z,1.50
2018-05-06T16:30:14.692Z,2.25
2018-05-06T16:32:43.219Z,1.95
2018-05-06T16:35:11.561Z,1.60
2018-05-06T16:37:40.662Z,1.75
2018-05-06T16:40:09.881Z,1.40
2018-05-06T16:42:38.253Z,2.05
2018-05-06T16:45:06.671Z,1.80
2018-05-06T16:47:35.606Z,1.70
2018-05-06T16:50:04.772Z,1.48
2018-05-06T16:52:33.162Z,1.92
2018-05-06T16:55:01.501Z,1.70
2018-05-06T16:57:29.851Z,2.08
2018-05-06T16:59:58.995Z,2.70
2018-05-06T17:02:27.358Z,1.67
2018-05-06T17:04:55.763Z,2.33
2018-05-06T17:07:24.088Z,1.70
2018-05-06T17:09:52.443Z,5.25
2018-05-06T17:12:22.282Z,3.00
2018-05-06T17:14:51.731Z,2.30
2018-05-06T17:17:20.107Z,2.42
2018-05-06T17:19:48.470Z,5.50
2018-05-06T17:22:16.952Z,11.23
2018-05-06T17:24:45.309Z,3.60
2018-05-06T17:27:14.373Z,19.58
2018-05-06T17:29:43.508Z,14.63
2018-05-06T17:32:12.080Z,12.02
2018-05-06T17:34:40.412Z,7.70
2018-05-06T17:37:09.703Z,5.30
2018-05-06T17:39:38.359Z,5.47
2018-05-06T17:42:06.696Z,4.50
2018-05-06T17:44:35.839Z,3.45
2018-05-06T17:47:04.211Z,3.25
2018-05-06T17:49:32.664Z,3.00
2018-05-06T17:52:01.758Z,2.15
2018-05-06T17:54:30.954Z,1.80
2018-05-06T17:57:00.398Z,2.17
2018-05-06T17:59:28.871Z,1.62
2018-05-06T18:01:57.217Z,2.10
2018-05-06T18:04:26.356Z,2.37
2018-05-06T18:06:54.743Z,2.62
2018-05-06T18:09:23.252Z,2.12
2018-05-06T18:11:51.638Z,2.03
2018-05-06T18:14:20.017Z,2.12
2018-05-06T18:16:48.371Z,3.58
2018-05-06T18:19:16.729Z,2.10
2018-05-06T18:21:45.132Z,3.33
2018-05-06T18:24:13.501Z,4.37
2018-05-06T18:26:41.865Z,2.03
2018-05-06T18:29:11.172Z,1.90
2018-05-06T18:31:39.640Z,2.10
2018-05-06T18:34:07.992Z,3.60
2018-05-06T18:36:36.377Z,2.20
2018-05-06T18:39:04.729Z,2.92
2018-05-06T18:41:33.885Z,1.85
2018-05-06T18:44:02.232Z,2.08
2018-05-06T18:46:30.636Z,2.00
2018-05-06T18:48:59.246Z,2.22
2018-05-06T18:51:27.594Z,1.90
2018-05-06T18:53:56.876Z,2.20
2018-05-06T18:56:26.325Z,1.98
2018-05-06T18:58:54.708Z,1.87
2018-05-06T19:01:23.054Z,2.05
2018-05-06T19:03:52.422Z,2.20
2018-05-06T19:06:21.844Z,1.98
2018-05-06T19:08:51.097Z,2.00
2018-05-06T19:11:19.491Z,2.57
2018-05-06T19:13:48.749Z,2.22
2018-05-06T19:16:18.032Z,2.37
2018-05-06T19:18:46.398Z,2.00
2018-05-06T19:21:17.204Z,4.72
2018-05-06T19:23:47.870Z,2.67
2018-05-06T19:26:18.514Z,2.33
2018-05-06T19:28:47.223Z,1.90
2018-05-06T19:31:15.699Z,2.30
2018-05-06T19:33:44.538Z,2.00
2018-05-06T19:36:14.983Z,2.97
2018-05-06T19:38:43.349Z,2.00
2018-05-06T19:41:13.261Z,2.40
2018-05-06T19:43:42.505Z,1.90
2018-05-06T19:46:10.891Z,2.57
2018-05-06T19:48:39.920Z,2.37
2018-05-06T19:51:08.340Z,2.85
2018-05-06T19:53:36.724Z,2.17
2018-05-06T19:56:06.813Z,2.20
2018-05-06T19:58:36.022Z,2.27
2018-05-06T20:01:05.243Z,2.27
2018-05-06T20:03:33.783Z,2.57
2018-05-06T20:06:03.299Z,2.60
2018-05-06T20:08:31.769Z,2.50
2018-05-06T20:11:01.084Z,2.22
2018-05-06T20:13:29.700Z,3.87
2018-05-06T20:15:58.164Z,2.30
2018-05-06T20:18:27.995Z,3.47
2018-05-06T20:20:56.702Z,3.12
2018-05-06T20:23:25.782Z,2.57
2018-05-06T20:25:54.571Z,3.00
2018-05-06T20:28:23.289Z,2.77
2018-05-06T20:30:52.032Z,2.57
2018-05-06T20:33:21.389Z,2.40
2018-05-06T20:35:50.950Z,2.40
2018-05-06T20:38:19.397Z,2.57
2018-05-06T20:40:47.890Z,2.50
2018-05-06T20:43:16.345Z,2.10
2018-05-06T20:45:46.729Z,2.30
2018-05-06T20:48:15.106Z,2.97
2018-05-06T20:50:43.458Z,2.47
2018-05-06T20:53:12.998Z,2.60
2018-05-06T20:55:43.682Z,2.30
2018-05-06T20:58:12.041Z,2.27
2018-05-06T21:00:45.582Z,2.60
2018-05-06T21:03:14.892Z,2.40
2018-05-06T21:05:44.713Z,2.70
2018-05-06T21:08:13.105Z,3.00
2018-05-06T21:10:41.445Z,3.07
2018-05-06T21:13:09.812Z,2.93
2018-05-06T21:15:38.210Z,3.87
2018-05-06T21:18:06.688Z,3.17
2018-05-06T21:20:35.044Z,3.00
2018-05-06T21:23:03.432Z,2.60
2018-05-06T21:25:31.773Z,4.90
2018-05-06T21:28:00.983Z,2.63
2018-05-06T21:30:30.113Z,2.70
2018-05-06T21:33:01.587Z,3.23
2018-05-06T21:35:29.903Z,2.53
2018-05-06T21:37:58.338Z,2.53
2018-05-06T21:40:26.664Z,3.58
2018-05-06T21:42:56.604Z,4.70
2018-05-06T21:45:25.006Z,2.97
2018-05-06T21:47:53.324Z,2.53
2018-05-06T21:50:21.684Z,2.40
2018-05-06T21:52:50.059Z,2.67
2018-05-06T21:55:18.423Z,2.43
2018-05-06T21:57:46.764Z,2.80
2018-05-06T22:00:15.140Z,3.03
2018-05-06T22:02:43.503Z,2.67
2018-05-06T22:05:14.764Z,2.70
2018-05-06T22:07:43.892Z,2.67
2018-05-06T22:10:12.284Z,2.57
2018-05-06T22:12:40.736Z,2.83
2018-05-06T22:15:09.077Z,2.70
2018-05-06T22:17:37.428Z,2.60
2018-05-06T22:20:05.802Z,2.50
2018-05-06T22:22:34.232Z,2.73
2018-05-06T22:25:03.402Z,3.07
2018-05-06T22:27:31.752Z,2.87
2018-05-06T22:30:00.115Z,2.70
2018-05-06T22:32:28.469Z,3.73
2018-05-06T22:34:57.604Z,2.80
2018-05-06T22:37:25.953Z,3.13
2018-05-06T22:39:54.306Z,2.67
2018-05-06T22:42:23.455Z,2.53
2018-05-06T22:44:51.992Z,2.90
2018-05-06T22:47:21.138Z,2.63
2018-05-06T22:49:49.512Z,2.60
2018-05-06T22:52:17.904Z,3.07
2018-05-06T22:54:47.644Z,2.90
2018-05-06T22:57:17.924Z,3.00
2018-05-06T22:59:47.218Z,2.90
2018-05-06T23:02:15.546Z,2.60
2018-05-06T23:04:44.776Z,3.00
2018-05-06T23:07:13.105Z,2.80
2018-05-06T23:09:41.513Z,2.47
2018-05-06T23:12:10.658Z,2.67
2018-05-06T23:14:39.801Z,3.13
2018-05-06T23:17:08.927Z,4.60
2018-05-06T23:19:38.299Z,4.07
2018-05-06T23:22:07.465Z,2.60
2018-05-06T23:24:35.857Z,2.77
2018-05-06T23:27:05.137Z,3.00
2018-05-06T23:29:33.591Z,2.70
2018-05-06T23:32:01.960Z,3.07
2018-05-06T23:34:30.346Z,2.47
2018-05-06T23:36:58.710Z,2.47
2018-05-06T23:39:27.138Z,3.40
2018-05-06T23:41:56.278Z,4.33
2018-05-06T23:44:26.104Z,2.90
2018-05-06T23:46:56.055Z,3.00
2018-05-06T23:49:24.418Z,3.27
2018-05-06T23:51:52.773Z,3.33
2018-05-06T23:54:21.116Z,2.90
2018-05-06T23:56:49.472Z,2.97
2018-05-06T23:59:17.803Z,2.70
